createdAt,value
2023-02-24T00:02:01.240Z,77.30
2023-02-24T00:04:32.604Z,77.63
2023-02-24T00:07:00.731Z,76.80
2023-02-24T00:09:29.955Z,73.32
2023-02-24T00:11:59.549Z,75.28
2023-02-24T00:14:29.639Z,75.43
2023-02-24T00:16:58.745Z,76.63
2023-02-24T00:19:32.099Z,75.38
2023-02-24T00:24:31.460Z,74.00
2023-02-24T00:27:00.943Z,73.90
2023-02-24T00:29:29.672Z,70.35
2023-02-24T00:32:02.402Z,71.95
2023-02-24T00:34:31.892Z,72.18
2023-02-24T00:36:59.944Z,72.90
2023-02-24T00:39:34.135Z,70.63
2023-02-24T00:42:06.721Z,73.25
2023-02-24T00:44:37.300Z,73.03
2023-02-24T00:47:06.846Z,72.50
2023-02-24T00:49:35.997Z,73.75
2023-02-24T00:52:04.783Z,75.63
2023-02-24T00:54:36.149Z,73.65
2023-02-24T00:57:04.060Z,69.47
2023-02-24T00:59:31.909Z,72.47
2023-02-24T01:02:03.767Z,69.45
2023-02-24T01:04:31.928Z,69.60
2023-02-24T01:07:02.652Z,66.82
2023-02-24T01:09:32.727Z,73.70
2023-02-24T01:12:19.306Z,72.68
2023-02-24T01:14:47.837Z,75.82
2023-02-24T01:17:16.827Z,73.82
2023-02-24T01:19:44.939Z,72.68
2023-02-24T01:22:15.087Z,71.65
2023-02-24T01:24:43.734Z,70.50
2023-02-24T01:27:12.950Z,68.95
2023-02-24T01:29:40.830Z,66.55
2023-02-24T01:32:14.422Z,68.88
2023-02-24T01:34:42.629Z,67.57
2023-02-24T01:37:10.727Z,65.93
2023-02-24T01:39:39.409Z,67.57
2023-02-24T01:42:07.324Z,67.32
2023-02-24T01:44:35.104Z,69.75
2023-02-24T01:47:03.914Z,70.65
2023-02-24T01:49:37.890Z,71.15
2023-02-24T01:52:06.112Z,66.68
2023-02-24T01:54:43.150Z,73.90
2023-02-24T01:57:11.846Z,70.47
2023-02-24T01:59:39.971Z,71.85
2023-02-24T02:02:09.177Z,72.45
2023-02-24T02:04:37.536Z,75.65
2023-02-24T02:07:05.761Z,72.82
2023-02-24T02:09:34.834Z,71.78
2023-02-24T02:12:02.633Z,73.40
2023-02-24T02:14:31.355Z,70.43
2023-02-24T02:17:18.043Z,69.00
2023-02-24T02:19:52.047Z,73.22
2023-02-24T02:22:40.080Z,72.63
2023-02-24T02:25:25.512Z,71.55
2023-02-24T02:27:59.407Z,73.65
2023-02-24T02:30:36.978Z,74.43
2023-02-24T02:33:28.002Z,76.97
2023-02-24T02:36:00.651Z,71.03
2023-02-24T02:38:34.966Z,71.55
2023-02-24T02:41:13.740Z,70.63
2023-02-24T02:43:49.010Z,72.20
2023-02-24T02:46:18.355Z,73.28
2023-02-24T02:48:49.024Z,76.50
2023-02-24T02:51:19.076Z,73.13
2023-02-24T02:54:04.924Z,73.05
2023-02-24T02:56:42.493Z,70.05
2023-02-24T02:59:12.850Z,71.72
2023-02-24T03:01:44.366Z,75.28
2023-02-24T03:04:13.927Z,78.28
2023-02-24T03:06:44.408Z,74.85
2023-02-24T03:09:21.399Z,72.68
2023-02-24T03:11:54.072Z,72.78
2023-02-24T03:14:27.738Z,73.70
2023-02-24T03:16:56.157Z,70.82
2023-02-24T03:19:27.000Z,71.22
2023-02-24T03:22:00.043Z,73.45
2023-02-24T03:24:28.048Z,70.97
2023-02-24T03:27:14.310Z,74.38
2023-02-24T03:29:43.343Z,73.60
2023-02-24T03:32:18.238Z,68.07
2023-02-24T03:34:57.345Z,69.30
2023-02-24T03:37:28.058Z,72.15
2023-02-24T03:40:14.744Z,76.68
2023-02-24T03:42:45.504Z,72.10
2023-02-24T03:45:13.666Z,72.10
2023-02-24T03:47:41.977Z,73.47
2023-02-24T03:50:17.671Z,67.22
2023-02-24T03:53:18.880Z,73.13
2023-02-24T03:55:50.062Z,73.30
2023-02-24T03:58:23.977Z,70.90
2023-02-24T04:00:51.856Z,71.53
2023-02-24T04:03:28.634Z,70.60
2023-02-24T04:06:13.936Z,77.65
2023-02-24T04:08:45.679Z,78.20
2023-02-24T04:11:25.564Z,74.50
2023-02-24T04:14:06.603Z,76.55
2023-02-24T04:16:46.318Z,74.40
2023-02-24T04:19:17.105Z,75.05
2023-02-24T04:21:48.936Z,75.93
2023-02-24T04:24:23.801Z,73.85
2023-02-24T04:26:52.766Z,72.28
2023-02-24T04:29:23.117Z,75.03
2023-02-24T04:31:53.911Z,85.45
2023-02-24T04:34:21.876Z,78.60
2023-02-24T04:36:50.773Z,75.90
2023-02-24T04:39:20.408Z,79.80
2023-02-24T04:41:52.700Z,80.15
2023-02-24T04:44:21.489Z,78.65
2023-02-24T04:46:50.405Z,76.70
2023-02-24T04:49:18.718Z,80.18
2023-02-24T04:51:46.899Z,74.63
2023-02-24T04:54:18.144Z,73.32
2023-02-24T04:56:47.992Z,70.32
2023-02-24T04:59:16.005Z,73.50
2023-02-24T05:01:44.851Z,75.82
2023-02-24T05:04:14.202Z,75.28
2023-02-24T05:06:44.173Z,75.78
2023-02-24T05:09:17.588Z,74.10
2023-02-24T05:14:14.747Z,72.32
2023-02-24T05:16:45.912Z,71.90
2023-02-24T05:19:33.544Z,70.35
2023-02-24T05:22:03.250Z,69.47
2023-02-24T05:24:31.894Z,73.20
2023-02-24T05:26:59.696Z,71.47
2023-02-24T05:29:31.239Z,69.93
2023-02-24T05:32:00.031Z,71.70
2023-02-24T05:34:30.609Z,73.03
2023-02-24T05:36:59.449Z,71.05
2023-02-24T05:39:27.314Z,71.30
2023-02-24T05:41:57.251Z,72.10
2023-02-24T05:44:26.528Z,75.18
2023-02-24T05:46:58.946Z,73.22
2023-02-24T05:49:29.550Z,76.38
2023-02-24T05:52:00.764Z,74.47
2023-02-24T05:54:30.153Z,75.80
2023-02-24T05:57:02.078Z,74.82
2023-02-24T05:59:33.272Z,70.65
2023-02-24T06:02:07.431Z,72.13
2023-02-24T06:04:39.835Z,69.70
2023-02-24T06:07:13.861Z,69.07
2023-02-24T06:09:45.267Z,68.72
2023-02-24T06:12:16.348Z,68.95
2023-02-24T06:14:45.179Z,67.38
2023-02-24T06:17:15.158Z,69.30
2023-02-24T06:19:43.552Z,68.88
2023-02-24T06:22:15.251Z,72.47
2023-02-24T06:24:46.035Z,68.20
2023-02-24T06:27:21.478Z,65.93
2023-02-24T06:29:50.732Z,60.83
2023-02-24T06:32:19.937Z,62.15
2023-02-24T06:34:47.851Z,61.88
2023-02-24T06:37:16.334Z,60.40
2023-02-24T06:39:44.534Z,63.53
2023-02-24T06:42:13.030Z,61.88
2023-02-24T06:44:41.409Z,60.80
2023-02-24T06:47:13.069Z,63.65
2023-02-24T06:49:42.828Z,68.47
2023-02-24T06:52:11.806Z,66.32
2023-02-24T06:54:41.963Z,69.40
2023-02-24T06:57:12.844Z,65.97
2023-02-24T06:59:41.233Z,66.78
2023-02-24T07:02:11.225Z,70.15
2023-02-24T07:04:44.021Z,68.43
2023-02-24T07:07:14.487Z,66.40
2023-02-24T07:09:42.828Z,64.82
2023-02-24T07:12:12.587Z,64.18
2023-02-24T07:14:40.937Z,61.70
2023-02-24T07:17:08.990Z,61.17
2023-02-24T07:19:36.983Z,59.58
2023-02-24T07:22:04.867Z,59.10
2023-02-24T07:24:36.536Z,58.10
2023-02-24T07:27:06.289Z,62.22
2023-02-24T07:29:35.034Z,61.60
2023-02-24T07:32:05.670Z,62.40
2023-02-24T07:34:34.142Z,63.05
2023-02-24T07:37:08.330Z,60.08
2023-02-24T07:39:37.537Z,61.38
2023-02-24T07:42:06.356Z,58.38
2023-02-24T07:44:45.099Z,62.90
2023-02-24T07:47:12.948Z,63.05
2023-02-24T07:49:41.114Z,65.45
2023-02-24T07:52:09.657Z,66.18
2023-02-24T07:54:39.390Z,62.90
2023-02-24T07:57:13.974Z,66.43
2023-02-24T07:59:47.213Z,65.25
2023-02-24T08:02:15.481Z,69.85
2023-02-24T08:04:50.094Z,66.90
2023-02-24T08:07:24.302Z,69.88
2023-02-24T08:10:14.433Z,68.05
2023-02-24T08:12:43.002Z,64.30
2023-02-24T08:15:17.462Z,63.83
2023-02-24T08:17:47.472Z,66.22
2023-02-24T08:20:16.154Z,63.40
2023-02-24T08:22:47.031Z,66.43
2023-02-24T08:25:19.428Z,63.67
2023-02-24T08:28:06.995Z,63.80
2023-02-24T08:30:40.283Z,61.17
2023-02-24T08:33:16.012Z,63.65
2023-02-24T08:35:45.273Z,63.58
2023-02-24T08:38:18.396Z,63.35
2023-02-24T08:40:51.308Z,64.25
2023-02-24T08:43:29.701Z,64.13
2023-02-24T08:46:03.812Z,65.07
2023-02-24T08:48:37.502Z,68.13
2023-02-24T08:51:05.701Z,64.55
2023-02-24T08:53:33.503Z,67.97
2023-02-24T08:56:09.593Z,66.70
2023-02-24T08:58:47.987Z,63.30
2023-02-24T09:01:24.135Z,65.35
2023-02-24T09:03:54.557Z,64.80
2023-02-24T09:06:27.848Z,67.32
2023-02-24T09:11:44.264Z,61.63
2023-02-24T09:14:32.202Z,67.30
2023-02-24T09:17:03.650Z,65.38
2023-02-24T09:19:51.534Z,62.00
2023-02-24T09:22:40.792Z,64.38
2023-02-24T09:25:21.339Z,66.40
2023-02-24T09:27:55.204Z,66.35
2023-02-24T09:30:36.459Z,65.25
2023-02-24T09:33:18.432Z,65.22
2023-02-24T09:35:47.234Z,67.50
2023-02-24T09:38:18.653Z,66.10
2023-02-24T09:40:50.574Z,66.00
2023-02-24T09:43:27.953Z,67.85
2023-02-24T09:46:02.002Z,70.25
2023-02-24T09:48:44.029Z,68.57
2023-02-24T09:51:21.941Z,67.97
2023-02-24T09:53:56.635Z,69.35
2023-02-24T09:56:42.589Z,68.65
2023-02-24T09:59:13.376Z,70.32
2023-02-24T10:01:44.810Z,70.25
2023-02-24T10:04:20.614Z,69.45
2023-02-24T10:06:49.162Z,71.43
2023-02-24T10:09:38.137Z,67.43
2023-02-24T10:12:06.127Z,72.85
2023-02-24T10:14:43.691Z,70.57
2023-02-24T10:17:24.582Z,72.88
2023-02-24T10:20:02.510Z,71.25
2023-02-24T10:22:53.403Z,72.80
2023-02-24T10:25:24.258Z,70.97
2023-02-24T10:27:53.138Z,72.32
2023-02-24T10:30:41.280Z,71.72
2023-02-24T10:33:15.202Z,74.05
2023-02-24T10:35:43.482Z,73.32
2023-02-24T10:38:11.376Z,72.93
2023-02-24T10:40:47.010Z,74.40
2023-02-24T10:43:19.750Z,71.72
2023-02-24T10:45:48.506Z,72.40
2023-02-24T10:48:41.477Z,69.43
2023-02-24T10:51:22.084Z,69.95
2023-02-24T10:54:10.175Z,63.88
2023-02-24T10:56:44.551Z,57.60
2023-02-24T10:59:40.920Z,60.47
2023-02-24T11:02:45.825Z,61.92
2023-02-24T11:05:27.347Z,65.07
2023-02-24T11:08:10.914Z,66.72
2023-02-24T11:10:53.272Z,72.53
2023-02-24T11:13:40.004Z,70.50
2023-02-24T11:16:27.914Z,69.30
2023-02-24T11:18:56.467Z,67.32
2023-02-24T11:21:25.568Z,70.07
2023-02-24T11:23:55.625Z,65.53
2023-02-24T11:26:26.528Z,73.05
2023-02-24T11:28:54.386Z,73.53
2023-02-24T11:31:28.315Z,67.70
2023-02-24T11:34:05.184Z,71.25
2023-02-24T11:36:41.499Z,67.13
2023-02-24T11:39:20.487Z,67.68
2023-02-24T11:41:55.582Z,68.57
2023-02-24T11:44:26.240Z,65.78
2023-02-24T11:46:57.602Z,67.00
2023-02-24T11:49:25.755Z,67.75
2023-02-24T11:51:55.029Z,69.65
2023-02-24T11:54:23.341Z,69.88
2023-02-24T11:56:54.056Z,67.95
2023-02-24T11:59:28.880Z,67.65
2023-02-24T12:02:08.066Z,68.05
2023-02-24T12:04:35.837Z,66.82
2023-02-24T12:07:09.633Z,67.85
2023-02-24T12:09:42.400Z,66.82
2023-02-24T12:12:13.693Z,67.47
2023-02-24T12:14:59.810Z,65.55
2023-02-24T12:17:42.226Z,67.35
2023-02-24T12:20:21.211Z,60.50
2023-02-24T12:22:53.017Z,65.05
2023-02-24T12:25:23.924Z,63.13
2023-02-24T12:27:54.798Z,63.80
2023-02-24T12:30:48.743Z,63.65
2023-02-24T12:33:28.673Z,65.38
2023-02-24T12:36:05.572Z,61.15
2023-02-24T12:38:36.161Z,61.78
2023-02-24T12:41:37.455Z,60.22
2023-02-24T12:44:08.129Z,61.28
2023-02-24T12:46:37.119Z,57.30
2023-02-24T12:49:09.421Z,58.67
2023-02-24T12:51:42.761Z,62.72
2023-02-24T12:56:56.751Z,60.22
2023-02-24T12:59:27.727Z,59.53
2023-02-24T13:01:55.565Z,59.42
2023-02-24T13:04:23.490Z,60.45
2023-02-24T13:06:56.032Z,61.35
2023-02-24T13:09:25.268Z,63.00
2023-02-24T13:11:59.414Z,58.88
2023-02-24T13:14:30.254Z,59.67
2023-02-24T13:17:17.666Z,57.78
2023-02-24T13:19:45.673Z,63.67
2023-02-24T13:22:13.444Z,57.70
2023-02-24T13:24:45.099Z,57.65
2023-02-24T13:27:23.187Z,59.38
2023-02-24T13:29:58.482Z,58.28
2023-02-24T13:32:29.572Z,58.13
2023-02-24T13:34:58.579Z,58.47
2023-02-24T13:37:30.530Z,60.67
2023-02-24T13:39:58.655Z,60.33
2023-02-24T13:42:35.963Z,58.38
2023-02-24T13:45:18.994Z,59.22
2023-02-24T13:48:01.580Z,58.75
2023-02-24T13:50:39.071Z,56.92
2023-02-24T13:53:14.769Z,57.35
2023-02-24T13:55:54.575Z,57.25
2023-02-24T13:58:41.177Z,54.40
2023-02-24T14:01:12.670Z,51.78
2023-02-24T14:03:41.828Z,55.42
2023-02-24T14:06:23.531Z,53.83
2023-02-24T14:08:54.302Z,52.97
2023-02-24T14:11:26.080Z,50.47
2023-02-24T14:13:54.987Z,50.53
2023-02-24T14:16:30.683Z,51.40
2023-02-24T14:19:01.743Z,50.85
2023-02-24T14:21:30.862Z,49.25
2023-02-24T14:23:58.671Z,49.95
2023-02-24T14:26:26.924Z,48.92
2023-02-24T14:29:00.499Z,47.53
2023-02-24T14:34:00.367Z,43.65
2023-02-24T14:36:29.721Z,45.15
2023-02-24T14:39:17.571Z,45.50
2023-02-24T14:41:45.937Z,44.88
2023-02-24T14:44:19.229Z,45.97
2023-02-24T14:46:47.907Z,45.60
2023-02-24T14:49:19.097Z,40.88
2023-02-24T14:51:48.734Z,46.08
2023-02-24T14:54:19.672Z,44.03
2023-02-24T14:56:47.583Z,45.70
2023-02-24T14:59:22.921Z,44.70
2023-02-24T15:01:52.479Z,45.55
2023-02-24T15:04:31.846Z,43.85
2023-02-24T15:07:00.504Z,42.97
2023-02-24T15:09:33.812Z,43.22
2023-02-24T15:14:30.770Z,43.15
2023-02-24T15:17:00.567Z,44.05
2023-02-24T15:19:34.268Z,43.88
2023-02-24T15:22:02.115Z,46.33
2023-02-24T15:24:34.196Z,44.95
2023-02-24T15:27:02.103Z,45.83
2023-02-24T15:29:31.622Z,45.45
2023-02-24T15:32:01.199Z,46.80
2023-02-24T15:34:31.154Z,43.20
2023-02-24T15:37:01.321Z,45.78
2023-02-24T15:39:31.332Z,45.45
2023-02-24T15:42:28.667Z,44.28
2023-02-24T15:44:58.107Z,44.45
2023-02-24T15:47:27.414Z,45.78
2023-02-24T15:49:55.292Z,44.83
2023-02-24T15:52:24.911Z,45.17
2023-02-24T15:54:52.991Z,46.75
2023-02-24T15:57:21.250Z,45.88
2023-02-24T15:59:49.093Z,46.15
2023-02-24T16:02:19.776Z,45.85
2023-02-24T16:04:48.173Z,43.50
2023-02-24T16:07:19.164Z,43.90
2023-02-24T16:09:48.933Z,46.42
2023-02-24T16:12:45.987Z,44.65
2023-02-24T16:15:17.179Z,44.35
2023-02-24T16:17:44.980Z,46.95
2023-02-24T16:20:15.763Z,49.63
2023-02-24T16:22:43.730Z,47.20
2023-02-24T16:25:15.204Z,46.80
2023-02-24T16:27:43.301Z,47.67
2023-02-24T16:30:21.408Z,46.35
2023-02-24T16:32:50.301Z,48.22
2023-02-24T16:35:18.383Z,43.92
2023-02-24T16:37:47.351Z,46.30
2023-02-24T16:40:21.447Z,45.80
2023-02-24T16:42:51.777Z,47.75
2023-02-24T16:45:28.560Z,46.83
2023-02-24T16:48:02.330Z,45.58
2023-02-24T16:50:33.561Z,48.08
2023-02-24T16:53:01.925Z,49.90
2023-02-24T16:55:29.828Z,47.95
2023-02-24T16:57:58.497Z,47.83
2023-02-24T17:00:27.272Z,48.58
2023-02-24T17:03:01.275Z,49.58
2023-02-24T17:05:29.307Z,49.28
2023-02-24T17:07:57.672Z,51.10
2023-02-24T17:10:28.541Z,49.17
2023-02-24T17:12:56.431Z,50.53
2023-02-24T17:15:28.574Z,50.65
2023-02-24T17:17:59.278Z,49.17
2023-02-24T17:20:27.107Z,48.20
2023-02-24T17:22:55.678Z,50.50
2023-02-24T17:25:25.267Z,53.35
2023-02-24T17:27:54.450Z,49.50
2023-02-24T17:30:33.562Z,50.03
2023-02-24T17:33:08.308Z,47.97
2023-02-24T17:35:36.801Z,51.30
2023-02-24T17:38:06.480Z,49.50
2023-02-24T17:40:34.570Z,51.53
2023-02-24T17:43:02.399Z,50.40
2023-02-24T17:45:30.201Z,50.35
2023-02-24T17:47:57.968Z,49.63
2023-02-24T17:50:25.924Z,48.25
2023-02-24T17:52:53.802Z,47.17
2023-02-24T17:55:21.590Z,48.42
2023-02-24T17:57:49.420Z,47.88
2023-02-24T18:00:17.943Z,45.70
2023-02-24T18:02:45.859Z,48.55
2023-02-24T18:05:13.764Z,48.05
2023-02-24T18:07:41.621Z,46.97
2023-02-24T18:10:09.762Z,48.65
2023-02-24T18:12:38.179Z,48.15
2023-02-24T18:15:09.311Z,49.45
2023-02-24T18:17:38.208Z,49.20
2023-02-24T18:20:06.779Z,48.08
2023-02-24T18:22:34.927Z,48.92
2023-02-24T18:25:02.818Z,49.28
2023-02-24T18:27:30.651Z,49.47
2023-02-24T18:29:58.458Z,48.30
2023-02-24T18:32:26.476Z,48.47
2023-02-24T18:34:55.565Z,51.22
2023-02-24T18:37:23.479Z,50.85
2023-02-24T18:39:53.315Z,50.97
2023-02-24T18:42:21.385Z,49.95
2023-02-24T18:44:49.328Z,52.28
2023-02-24T18:47:17.136Z,51.17
2023-02-24T18:49:44.917Z,49.67
2023-02-24T18:52:13.043Z,54.90
2023-02-24T18:54:40.872Z,49.30
2023-02-24T18:57:09.394Z,49.38
2023-02-24T18:59:37.178Z,50.05
2023-02-24T19:02:05.088Z,48.97
2023-02-24T19:04:32.932Z,53.55
2023-02-24T19:07:00.801Z,51.15
2023-02-24T19:09:28.619Z,50.67
2023-02-24T19:11:56.439Z,51.03
2023-02-24T19:14:24.204Z,51.72
2023-02-24T19:16:52.061Z,52.53
2023-02-24T19:19:19.932Z,54.10
2023-02-24T19:21:49.448Z,51.63
2023-02-24T19:24:17.752Z,50.25
2023-02-24T19:26:47.518Z,50.25
2023-02-24T19:29:16.358Z,51.58
2023-02-24T19:31:45.599Z,52.45
2023-02-24T19:34:16.210Z,51.85
2023-02-24T19:36:44.045Z,53.97
2023-02-24T19:39:14.295Z,54.55
2023-02-24T19:41:42.679Z,52.88
2023-02-24T19:44:10.962Z,51.22
2023-02-24T19:46:39.058Z,49.80
2023-02-24T19:49:06.969Z,53.33
2023-02-24T19:51:34.776Z,52.15
2023-02-24T19:54:03.338Z,51.58
2023-02-24T19:56:32.253Z,51.58
2023-02-24T19:59:01.383Z,52.63
2023-02-24T20:01:29.860Z,51.40
2023-02-24T20:03:58.942Z,50.53
2023-02-24T20:06:30.432Z,51.17
2023-02-24T20:08:59.323Z,54.78
2023-02-24T20:11:28.770Z,51.63
2023-02-24T20:13:56.673Z,52.33
2023-02-24T20:16:26.150Z,51.55
2023-02-24T20:18:55.405Z,53.55
2023-02-24T20:21:23.413Z,52.78
2023-02-24T20:23:51.325Z,53.35
2023-02-24T20:26:19.391Z,55.35
2023-02-24T20:28:49.036Z,55.55
2023-02-24T20:31:19.328Z,54.83
2023-02-24T20:33:47.982Z,58.35
2023-02-24T20:36:26.584Z,60.88
2023-02-24T20:38:54.909Z,56.55
2023-02-24T20:41:24.339Z,57.97
2023-02-24T20:43:52.263Z,55.60
2023-02-24T20:46:25.573Z,57.70
2023-02-24T20:48:57.078Z,56.00
2023-02-24T20:51:25.527Z,58.13
2023-02-24T20:53:58.029Z,54.63
2023-02-24T20:56:28.084Z,54.40
2023-02-24T20:59:03.113Z,54.15
2023-02-24T21:01:32.363Z,54.00
2023-02-24T21:04:01.841Z,50.75
2023-02-24T21:06:29.962Z,53.42
2023-02-24T21:08:58.612Z,51.97
2023-02-24T21:11:26.848Z,55.70
2023-02-24T21:13:54.717Z,57.28
2023-02-24T21:16:22.896Z,56.50
2023-02-24T21:18:53.201Z,55.00
2023-02-24T21:21:21.566Z,56.78
2023-02-24T21:23:50.462Z,55.63
2023-02-24T21:26:18.538Z,55.53
2023-02-24T21:28:46.695Z,54.33
2023-02-24T21:31:16.079Z,56.72
2023-02-24T21:33:44.202Z,54.17
2023-02-24T21:36:13.875Z,56.88
2023-02-24T21:38:41.756Z,53.78
2023-02-24T21:41:10.885Z,54.33
2023-02-24T21:43:39.146Z,54.75
2023-02-24T21:46:08.978Z,54.80
2023-02-24T21:48:37.127Z,57.63
2023-02-24T21:51:06.920Z,58.78
2023-02-24T21:53:35.718Z,56.08
2023-02-24T21:56:04.960Z,55.38
2023-02-24T21:58:33.190Z,55.95
2023-02-24T22:01:01.764Z,57.67
2023-02-24T22:03:29.952Z,54.70
2023-02-24T22:05:57.735Z,54.97
2023-02-24T22:08:25.604Z,56.63
2023-02-24T22:10:59.843Z,56.15
2023-02-24T22:13:28.343Z,56.05
2023-02-24T22:15:59.079Z,54.85
2023-02-24T22:18:26.932Z,55.30
2023-02-24T22:20:55.926Z,53.33
2023-02-24T22:23:23.796Z,54.67
2023-02-24T22:25:51.675Z,53.70
2023-02-24T22:28:19.527Z,55.80
2023-02-24T22:30:54.726Z,54.92
2023-02-24T22:33:22.604Z,56.08
2023-02-24T22:35:50.664Z,55.72
2023-02-24T22:38:18.465Z,53.80
2023-02-24T22:40:46.236Z,54.10
2023-02-24T22:43:13.997Z,57.85
2023-02-24T22:45:41.766Z,55.42
2023-02-24T22:48:09.632Z,54.13
2023-02-24T22:50:37.489Z,54.60
2023-02-24T22:53:05.916Z,53.88
2023-02-24T22:55:33.731Z,54.22
2023-02-24T22:58:01.511Z,51.72
2023-02-24T23:00:29.364Z,52.42
2023-02-24T23:02:57.214Z,54.40
2023-02-24T23:05:25.018Z,57.00
2023-02-24T23:07:52.817Z,54.33
2023-02-24T23:10:20.734Z,51.63
2023-02-24T23:12:48.816Z,54.78
2023-02-24T23:15:17.199Z,56.10
2023-02-24T23:17:45.016Z,57.65
2023-02-24T23:20:12.976Z,54.58
2023-02-24T23:22:41.396Z,53.88
2023-02-24T23:25:10.432Z,54.80
2023-02-24T23:27:41.893Z,51.65
2023-02-24T23:30:11.808Z,54.83
2023-02-24T23:32:39.770Z,54.97
2023-02-24T23:35:08.005Z,56.45
2023-02-24T23:37:35.795Z,52.78
2023-02-24T23:40:08.036Z,57.00
2023-02-24T23:42:35.833Z,56.13
2023-02-24T23:45:03.993Z,54.20
2023-02-24T23:47:32.685Z,58.03
2023-02-24T23:50:00.840Z,57.97
2023-02-24T23:52:28.675Z,55.17
2023-02-24T23:54:56.447Z,56.15
2023-02-24T23:57:24.357Z,59.65
2023-02-24T23:59:52.194Z,57.92
